sensor_id;sensor_type;location;lat;lon;timestamp;P1;durP1;ratioP1;P2;durP2;ratioP2
65751;SDS011;52486;51.098;13.770;2023-07-22T00:02:17;1.23;;;1.10;;
65751;SDS011;52486;51.098;13.770;2023-07-22T00:04:43;0.90;;;0.90;;
65751;SDS011;52486;51.098;13.770;2023-07-22T00:07:09;1.23;;;1.13;;
65751;SDS011;52486;51.098;13.770;2023-07-22T00:09:35;1.48;;;1.08;;
65751;SDS011;52486;51.098;13.770;2023-07-22T00:12:03;1.48;;;1.05;;
65751;SDS011;52486;51.098;13.770;2023-07-22T00:14:29;1.30;;;1.00;;
65751;SDS011;52486;51.098;13.770;2023-07-22T00:16:55;1.20;;;1.10;;
65751;SDS011;52486;51.098;13.770;2023-07-22T00:19:21;1.10;;;1.00;;
65751;SDS011;52486;51.098;13.770;2023-07-22T00:21:48;1.20;;;1.10;;
65751;SDS011;52486;51.098;13.770;2023-07-22T00:24:14;1.10;;;1.00;;
65751;SDS011;52486;51.098;13.770;2023-07-22T00:26:41;1.10;;;1.00;;
65751;SDS011;52486;51.098;13.770;2023-07-22T00:29:07;1.10;;;0.95;;
65751;SDS011;52486;51.098;13.770;2023-07-22T00:31:33;1.05;;;0.98;;
65751;SDS011;52486;51.098;13.770;2023-07-22T00:33:59;1.08;;;1.00;;
65751;SDS011;52486;51.098;13.770;2023-07-22T00:36:25;0.70;;;0.70;;
65751;SDS011;52486;51.098;13.770;2023-07-22T00:38:51;0.88;;;0.88;;
65751;SDS011;52486;51.098;13.770;2023-07-22T00:41:18;0.80;;;0.80;;
65751;SDS011;52486;51.098;13.770;2023-07-22T00:43:44;1.02;;;0.90;;
65751;SDS011;52486;51.098;13.770;2023-07-22T00:46:10;0.80;;;0.80;;
65751;SDS011;52486;51.098;13.770;2023-07-22T00:48:36;0.98;;;0.90;;
65751;SDS011;52486;51.098;13.770;2023-07-22T00:51:02;1.10;;;1.00;;
65751;SDS011;52486;51.098;13.770;2023-07-22T00:53:28;0.70;;;0.70;;
65751;SDS011;52486;51.098;13.770;2023-07-22T00:55:54;1.50;;;0.80;;
65751;SDS011;52486;51.098;13.770;2023-07-22T00:58:21;1.10;;;1.00;;
65751;SDS011;52486;51.098;13.770;2023-07-22T01:00:47;1.15;;;1.00;;
65751;SDS011;52486;51.098;13.770;2023-07-22T01:03:13;0.70;;;0.70;;
65751;SDS011;52486;51.098;13.770;2023-07-22T01:05:39;0.82;;;0.80;;
65751;SDS011;52486;51.098;13.770;2023-07-22T01:08:06;1.23;;;0.95;;
65751;SDS011;52486;51.098;13.770;2023-07-22T01:10:32;1.75;;;0.80;;
65751;SDS011;52486;51.098;13.770;2023-07-22T01:12:59;1.25;;;0.90;;
65751;SDS011;52486;51.098;13.770;2023-07-22T01:15:25;1.20;;;1.00;;
65751;SDS011;52486;51.098;13.770;2023-07-22T01:17:51;0.82;;;0.82;;
65751;SDS011;52486;51.098;13.770;2023-07-22T01:20:17;1.00;;;0.90;;
65751;SDS011;52486;51.098;13.770;2023-07-22T01:22:51;0.95;;;0.93;;
65751;SDS011;52486;51.098;13.770;2023-07-22T01:25:18;2.08;;;0.98;;
65751;SDS011;52486;51.098;13.770;2023-07-22T01:27:46;1.13;;;1.02;;
65751;SDS011;52486;51.098;13.770;2023-07-22T01:30:12;1.00;;;1.00;;
65751;SDS011;52486;51.098;13.770;2023-07-22T01:32:39;0.85;;;0.85;;
65751;SDS011;52486;51.098;13.770;2023-07-22T01:35:05;1.02;;;0.93;;
65751;SDS011;52486;51.098;13.770;2023-07-22T01:37:33;0.75;;;0.75;;
65751;SDS011;52486;51.098;13.770;2023-07-22T01:39:59;1.30;;;1.10;;
65751;SDS011;52486;51.098;13.770;2023-07-22T01:42:25;0.80;;;0.80;;
65751;SDS011;52486;51.098;13.770;2023-07-22T01:44:51;0.93;;;0.70;;
65751;SDS011;52486;51.098;13.770;2023-07-22T01:47:17;0.95;;;0.85;;
65751;SDS011;52486;51.098;13.770;2023-07-22T01:49:43;0.80;;;0.80;;
65751;SDS011;52486;51.098;13.770;2023-07-22T01:52:09;0.70;;;0.70;;
65751;SDS011;52486;51.098;13.770;2023-07-22T01:54:35;0.70;;;0.70;;
65751;SDS011;52486;51.098;13.770;2023-07-22T01:57:01;1.02;;;0.93;;
65751;SDS011;52486;51.098;13.770;2023-07-22T01:59:27;1.15;;;0.80;;
65751;SDS011;52486;51.098;13.770;2023-07-22T02:01:53;1.10;;;1.00;;
65751;SDS011;52486;51.098;13.770;2023-07-22T02:04:19;0.90;;;0.90;;
65751;SDS011;52486;51.098;13.770;2023-07-22T02:06:45;0.80;;;0.80;;
65751;SDS011;52486;51.098;13.770;2023-07-22T02:09:11;1.13;;;0.90;;
65751;SDS011;52486;51.098;13.770;2023-07-22T02:11:38;0.80;;;0.80;;
65751;SDS011;52486;51.098;13.770;2023-07-22T02:14:05;2.17;;;0.70;;
65751;SDS011;52486;51.098;13.770;2023-07-22T02:16:36;0.63;;;0.63;;
65751;SDS011;52486;51.098;13.770;2023-07-22T02:19:02;0.80;;;0.80;;
65751;SDS011;52486;51.098;13.770;2023-07-22T02:21:28;0.80;;;0.80;;
65751;SDS011;52486;51.098;13.770;2023-07-22T02:23:54;0.75;;;0.75;;
65751;SDS011;52486;51.098;13.770;2023-07-22T02:26:20;0.73;;;0.73;;
65751;SDS011;52486;51.098;13.770;2023-07-22T02:28:47;0.70;;;0.70;;
65751;SDS011;52486;51.098;13.770;2023-07-22T02:31:13;0.85;;;0.85;;
65751;SDS011;52486;51.098;13.770;2023-07-22T02:33:39;0.75;;;0.75;;
65751;SDS011;52486;51.098;13.770;2023-07-22T02:36:05;0.80;;;0.80;;
65751;SDS011;52486;51.098;13.770;2023-07-22T02:38:31;0.70;;;0.70;;
65751;SDS011;52486;51.098;13.770;2023-07-22T02:41:01;0.80;;;0.80;;
65751;SDS011;52486;51.098;13.770;2023-07-22T02:45:53;0.60;;;0.60;;
65751;SDS011;52486;51.098;13.770;2023-07-22T02:48:19;1.20;;;0.93;;
65751;SDS011;52486;51.098;13.770;2023-07-22T02:50:45;1.20;;;0.80;;
65751;SDS011;52486;51.098;13.770;2023-07-22T02:53:11;0.95;;;0.90;;
65751;SDS011;52486;51.098;13.770;2023-07-22T02:55:37;0.80;;;0.80;;
65751;SDS011;52486;51.098;13.770;2023-07-22T02:58:03;0.80;;;0.80;;
65751;SDS011;52486;51.098;13.770;2023-07-22T03:00:30;0.93;;;0.90;;
65751;SDS011;52486;51.098;13.770;2023-07-22T03:02:57;0.77;;;0.77;;
65751;SDS011;52486;51.098;13.770;2023-07-22T03:05:29;1.02;;;0.90;;
65751;SDS011;52486;51.098;13.770;2023-07-22T03:07:56;1.00;;;0.90;;
65751;SDS011;52486;51.098;13.770;2023-07-22T03:10:22;0.70;;;0.70;;
65751;SDS011;52486;51.098;13.770;2023-07-22T03:12:50;1.10;;;1.00;;
65751;SDS011;52486;51.098;13.770;2023-07-22T03:15:19;1.03;;;0.70;;
65751;SDS011;52486;51.098;13.770;2023-07-22T03:17:46;0.82;;;0.82;;
65751;SDS011;52486;51.098;13.770;2023-07-22T03:20:12;1.20;;;0.80;;
65751;SDS011;52486;51.098;13.770;2023-07-22T03:22:44;0.77;;;0.77;;
65751;SDS011;52486;51.098;13.770;2023-07-22T03:25:11;0.80;;;0.80;;
65751;SDS011;52486;51.098;13.770;2023-07-22T03:27:38;0.68;;;0.68;;
65751;SDS011;52486;51.098;13.770;2023-07-22T03:30:04;0.70;;;0.70;;
65751;SDS011;52486;51.098;13.770;2023-07-22T03:32:35;0.70;;;0.70;;
65751;SDS011;52486;51.098;13.770;2023-07-22T03:35:01;0.70;;;0.70;;
65751;SDS011;52486;51.098;13.770;2023-07-22T03:37:28;0.70;;;0.70;;
65751;SDS011;52486;51.098;13.770;2023-07-22T03:39:55;1.73;;;0.80;;
65751;SDS011;52486;51.098;13.770;2023-07-22T03:42:21;0.70;;;0.70;;
65751;SDS011;52486;51.098;13.770;2023-07-22T03:44:47;0.70;;;0.70;;
65751;SDS011;52486;51.098;13.770;2023-07-22T03:47:13;0.95;;;0.80;;
65751;SDS011;52486;51.098;13.770;2023-07-22T03:49:39;1.05;;;0.80;;
65751;SDS011;52486;51.098;13.770;2023-07-22T03:52:05;0.65;;;0.65;;
65751;SDS011;52486;51.098;13.770;2023-07-22T03:54:31;0.70;;;0.70;;
65751;SDS011;52486;51.098;13.770;2023-07-22T03:56:56;0.75;;;0.75;;
65751;SDS011;52486;51.098;13.770;2023-07-22T03:59:22;0.60;;;0.60;;
65751;SDS011;52486;51.098;13.770;2023-07-22T04:01:48;0.60;;;0.60;;
65751;SDS011;52486;51.098;13.770;2023-07-22T04:04:17;0.60;;;0.60;;
65751;SDS011;52486;51.098;13.770;2023-07-22T04:06:42;0.68;;;0.60;;
65751;SDS011;52486;51.098;13.770;2023-07-22T04:09:09;1.00;;;0.70;;
65751;SDS011;52486;51.098;13.770;2023-07-22T04:11:35;0.60;;;0.60;;
65751;SDS011;52486;51.098;13.770;2023-07-22T04:14:01;0.60;;;0.60;;
65751;SDS011;52486;51.098;13.770;2023-07-22T04:16:27;0.73;;;0.73;;
65751;SDS011;52486;51.098;13.770;2023-07-22T04:18:53;0.80;;;0.80;;
65751;SDS011;52486;51.098;13.770;2023-07-22T04:21:19;0.60;;;0.60;;
65751;SDS011;52486;51.098;13.770;2023-07-22T04:23:45;0.70;;;0.70;;
65751;SDS011;52486;51.098;13.770;2023-07-22T04:26:11;1.20;;;0.70;;
65751;SDS011;52486;51.098;13.770;2023-07-22T04:28:37;0.60;;;0.60;;
65751;SDS011;52486;51.098;13.770;2023-07-22T04:31:03;0.75;;;0.60;;
65751;SDS011;52486;51.098;13.770;2023-07-22T04:33:29;0.80;;;0.70;;
65751;SDS011;52486;51.098;13.770;2023-07-22T04:35:57;0.60;;;0.60;;
65751;SDS011;52486;51.098;13.770;2023-07-22T04:38:23;0.95;;;0.60;;
65751;SDS011;52486;51.098;13.770;2023-07-22T04:40:49;0.70;;;0.70;;
65751;SDS011;52486;51.098;13.770;2023-07-22T04:43:15;0.90;;;0.60;;
65751;SDS011;52486;51.098;13.770;2023-07-22T04:45:45;0.50;;;0.50;;
65751;SDS011;52486;51.098;13.770;2023-07-22T04:48:15;0.73;;;0.73;;
65751;SDS011;52486;51.098;13.770;2023-07-22T04:50:41;1.08;;;0.70;;
65751;SDS011;52486;51.098;13.770;2023-07-22T04:53:09;0.57;;;0.57;;
65751;SDS011;52486;51.098;13.770;2023-07-22T04:55:35;0.73;;;0.73;;
65751;SDS011;52486;51.098;13.770;2023-07-22T04:58:02;0.60;;;0.60;;
65751;SDS011;52486;51.098;13.770;2023-07-22T05:00:28;0.70;;;0.70;;
65751;SDS011;52486;51.098;13.770;2023-07-22T05:02:54;0.70;;;0.70;;
65751;SDS011;52486;51.098;13.770;2023-07-22T05:05:21;0.73;;;0.68;;
65751;SDS011;52486;51.098;13.770;2023-07-22T05:07:47;0.70;;;0.70;;
65751;SDS011;52486;51.098;13.770;2023-07-22T05:10:17;0.75;;;0.70;;
65751;SDS011;52486;51.098;13.770;2023-07-22T05:12:44;0.70;;;0.70;;
65751;SDS011;52486;51.098;13.770;2023-07-22T05:15:10;0.88;;;0.70;;
65751;SDS011;52486;51.098;13.770;2023-07-22T05:17:37;0.63;;;0.63;;
65751;SDS011;52486;51.098;13.770;2023-07-22T05:20:03;1.60;;;0.70;;
65751;SDS011;52486;51.098;13.770;2023-07-22T05:22:31;0.52;;;0.52;;
65751;SDS011;52486;51.098;13.770;2023-07-22T05:24:57;0.70;;;0.70;;
65751;SDS011;52486;51.098;13.770;2023-07-22T05:27:23;0.60;;;0.60;;
65751;SDS011;52486;51.098;13.770;2023-07-22T05:29:49;1.15;;;0.55;;
65751;SDS011;52486;51.098;13.770;2023-07-22T05:32:15;0.60;;;0.60;;
65751;SDS011;52486;51.098;13.770;2023-07-22T05:34:41;0.57;;;0.57;;
65751;SDS011;52486;51.098;13.770;2023-07-22T05:37:07;0.55;;;0.55;;
65751;SDS011;52486;51.098;13.770;2023-07-22T05:39:33;0.60;;;0.60;;
65751;SDS011;52486;51.098;13.770;2023-07-22T05:41:59;0.60;;;0.60;;
65751;SDS011;52486;51.098;13.770;2023-07-22T05:44:25;0.90;;;0.63;;
65751;SDS011;52486;51.098;13.770;2023-07-22T05:46:51;0.68;;;0.57;;
65751;SDS011;52486;51.098;13.770;2023-07-22T05:49:17;0.63;;;0.63;;
65751;SDS011;52486;51.098;13.770;2023-07-22T05:51:43;0.60;;;0.60;;
65751;SDS011;52486;51.098;13.770;2023-07-22T05:54:09;0.43;;;0.43;;
65751;SDS011;52486;51.098;13.770;2023-07-22T05:56:35;0.68;;;0.60;;
65751;SDS011;52486;51.098;13.770;2023-07-22T05:59:01;0.55;;;0.55;;
65751;SDS011;52486;51.098;13.770;2023-07-22T06:01:27;0.50;;;0.50;;
65751;SDS011;52486;51.098;13.770;2023-07-22T06:03:53;0.60;;;0.60;;
65751;SDS011;52486;51.098;13.770;2023-07-22T06:06:19;0.70;;;0.70;;
65751;SDS011;52486;51.098;13.770;2023-07-22T06:08:45;0.60;;;0.60;;
65751;SDS011;52486;51.098;13.770;2023-07-22T06:11:11;0.60;;;0.60;;
65751;SDS011;52486;51.098;13.770;2023-07-22T06:13:37;1.23;;;0.68;;
65751;SDS011;52486;51.098;13.770;2023-07-22T06:16:03;0.60;;;0.60;;
65751;SDS011;52486;51.098;13.770;2023-07-22T06:18:29;0.50;;;0.50;;
65751;SDS011;52486;51.098;13.770;2023-07-22T06:20:55;0.93;;;0.50;;
65751;SDS011;52486;51.098;13.770;2023-07-22T06:23:22;0.60;;;0.50;;
65751;SDS011;52486;51.098;13.770;2023-07-22T06:25:48;0.50;;;0.50;;
65751;SDS011;52486;51.098;13.770;2023-07-22T06:28:14;0.98;;;0.50;;
65751;SDS011;52486;51.098;13.770;2023-07-22T06:30:40;0.63;;;0.63;;
65751;SDS011;52486;51.098;13.770;2023-07-22T06:33:06;0.70;;;0.70;;
65751;SDS011;52486;51.098;13.770;2023-07-22T06:35:32;0.50;;;0.50;;
65751;SDS011;52486;51.098;13.770;2023-07-22T06:37:58;0.50;;;0.50;;
65751;SDS011;52486;51.098;13.770;2023-07-22T06:40:24;0.55;;;0.55;;
65751;SDS011;52486;51.098;13.770;2023-07-22T06:42:50;0.50;;;0.50;;
65751;SDS011;52486;51.098;13.770;2023-07-22T06:45:16;0.60;;;0.60;;
65751;SDS011;52486;51.098;13.770;2023-07-22T06:47:42;0.60;;;0.50;;
65751;SDS011;52486;51.098;13.770;2023-07-22T06:50:09;0.55;;;0.45;;
65751;SDS011;52486;51.098;13.770;2023-07-22T06:52:35;0.77;;;0.60;;
65751;SDS011;52486;51.098;13.770;2023-07-22T06:55:01;0.52;;;0.52;;
65751;SDS011;52486;51.098;13.770;2023-07-22T06:57:27;0.40;;;0.40;;
65751;SDS011;52486;51.098;13.770;2023-07-22T06:59:53;0.60;;;0.60;;
65751;SDS011;52486;51.098;13.770;2023-07-22T07:02:19;0.50;;;0.50;;
65751;SDS011;52486;51.098;13.770;2023-07-22T07:04:46;0.40;;;0.40;;
65751;SDS011;52486;51.098;13.770;2023-07-22T07:07:12;0.50;;;0.50;;
65751;SDS011;52486;51.098;13.770;2023-07-22T07:09:39;0.50;;;0.50;;
65751;SDS011;52486;51.098;13.770;2023-07-22T07:12:05;0.60;;;0.60;;
65751;SDS011;52486;51.098;13.770;2023-07-22T07:14:32;0.52;;;0.43;;
65751;SDS011;52486;51.098;13.770;2023-07-22T07:16:58;0.50;;;0.50;;
65751;SDS011;52486;51.098;13.770;2023-07-22T07:19:26;0.90;;;0.55;;
65751;SDS011;52486;51.098;13.770;2023-07-22T07:21:52;0.40;;;0.40;;
65751;SDS011;52486;51.098;13.770;2023-07-22T07:24:18;0.50;;;0.50;;
65751;SDS011;52486;51.098;13.770;2023-07-22T07:26:44;0.50;;;0.50;;
65751;SDS011;52486;51.098;13.770;2023-07-22T07:29:10;0.60;;;0.60;;
65751;SDS011;52486;51.098;13.770;2023-07-22T07:31:37;0.60;;;0.60;;
65751;SDS011;52486;51.098;13.770;2023-07-22T07:34:03;0.57;;;0.57;;
65751;SDS011;52486;51.098;13.770;2023-07-22T07:36:29;0.40;;;0.30;;
65751;SDS011;52486;51.098;13.770;2023-07-22T07:38:55;0.50;;;0.50;;
65751;SDS011;52486;51.098;13.770;2023-07-22T07:41:21;0.50;;;0.50;;
65751;SDS011;52486;51.098;13.770;2023-07-22T07:43:47;0.63;;;0.63;;
65751;SDS011;52486;51.098;13.770;2023-07-22T07:46:28;0.50;;;0.50;;
65751;SDS011;52486;51.098;13.770;2023-07-22T07:51:21;0.50;;;0.50;;
65751;SDS011;52486;51.098;13.770;2023-07-22T07:53:47;0.57;;;0.57;;
65751;SDS011;52486;51.098;13.770;2023-07-22T07:56:14;0.50;;;0.50;;
65751;SDS011;52486;51.098;13.770;2023-07-22T07:58:40;0.55;;;0.55;;
65751;SDS011;52486;51.098;13.770;2023-07-22T08:01:06;0.82;;;0.63;;
65751;SDS011;52486;51.098;13.770;2023-07-22T08:03:32;0.60;;;0.60;;
65751;SDS011;52486;51.098;13.770;2023-07-22T08:05:59;1.05;;;0.70;;
65751;SDS011;52486;51.098;13.770;2023-07-22T08:08:25;0.50;;;0.50;;
65751;SDS011;52486;51.098;13.770;2023-07-22T08:11:01;0.50;;;0.50;;
65751;SDS011;52486;51.098;13.770;2023-07-22T08:13:28;0.70;;;0.70;;
65751;SDS011;52486;51.098;13.770;2023-07-22T08:15:56;0.60;;;0.60;;
65751;SDS011;52486;51.098;13.770;2023-07-22T08:18:22;0.60;;;0.60;;
65751;SDS011;52486;51.098;13.770;2023-07-22T08:20:49;0.60;;;0.60;;
65751;SDS011;52486;51.098;13.770;2023-07-22T08:23:15;0.60;;;0.60;;
65751;SDS011;52486;51.098;13.770;2023-07-22T08:25:41;0.60;;;0.60;;
65751;SDS011;52486;51.098;13.770;2023-07-22T08:28:07;0.57;;;0.57;;
65751;SDS011;52486;51.098;13.770;2023-07-22T08:30:33;1.08;;;0.60;;
65751;SDS011;52486;51.098;13.770;2023-07-22T08:32:59;0.52;;;0.50;;
65751;SDS011;52486;51.098;13.770;2023-07-22T08:35:25;0.47;;;0.47;;
65751;SDS011;52486;51.098;13.770;2023-07-22T08:37:51;0.70;;;0.70;;
65751;SDS011;52486;51.098;13.770;2023-07-22T08:40:18;0.40;;;0.40;;
65751;SDS011;52486;51.098;13.770;2023-07-22T08:42:45;0.55;;;0.55;;
65751;SDS011;52486;51.098;13.770;2023-07-22T08:45:11;0.60;;;0.60;;
65751;SDS011;52486;51.098;13.770;2023-07-22T08:47:38;0.60;;;0.60;;
65751;SDS011;52486;51.098;13.770;2023-07-22T08:50:05;2.00;;;0.60;;
65751;SDS011;52486;51.098;13.770;2023-07-22T08:52:31;0.60;;;0.60;;
65751;SDS011;52486;51.098;13.770;2023-07-22T08:54:58;0.70;;;0.70;;
65751;SDS011;52486;51.098;13.770;2023-07-22T08:57:26;0.52;;;0.52;;
65751;SDS011;52486;51.098;13.770;2023-07-22T08:59:52;0.60;;;0.60;;
65751;SDS011;52486;51.098;13.770;2023-07-22T09:02:19;0.55;;;0.55;;
65751;SDS011;52486;51.098;13.770;2023-07-22T09:04:45;0.70;;;0.70;;
65751;SDS011;52486;51.098;13.770;2023-07-22T09:07:11;0.50;;;0.50;;
65751;SDS011;52486;51.098;13.770;2023-07-22T09:09:38;0.60;;;0.60;;
65751;SDS011;52486;51.098;13.770;2023-07-22T09:12:04;0.60;;;0.60;;
65751;SDS011;52486;51.098;13.770;2023-07-22T09:14:31;0.60;;;0.60;;
65751;SDS011;52486;51.098;13.770;2023-07-22T09:16:59;0.50;;;0.50;;
65751;SDS011;52486;51.098;13.770;2023-07-22T09:19:25;1.20;;;0.57;;
65751;SDS011;52486;51.098;13.770;2023-07-22T09:21:51;0.63;;;0.63;;
65751;SDS011;52486;51.098;13.770;2023-07-22T09:24:22;0.60;;;0.60;;
65751;SDS011;52486;51.098;13.770;2023-07-22T09:26:48;0.68;;;0.60;;
65751;SDS011;52486;51.098;13.770;2023-07-22T09:29:14;0.60;;;0.60;;
65751;SDS011;52486;51.098;13.770;2023-07-22T09:31:52;0.55;;;0.40;;
65751;SDS011;52486;51.098;13.770;2023-07-22T09:34:18;0.68;;;0.68;;
65751;SDS011;52486;51.098;13.770;2023-07-22T09:36:57;0.47;;;0.47;;
65751;SDS011;52486;51.098;13.770;2023-07-22T09:39:25;0.50;;;0.50;;
65751;SDS011;52486;51.098;13.770;2023-07-22T09:41:51;0.80;;;0.80;;
65751;SDS011;52486;51.098;13.770;2023-07-22T09:44:18;0.60;;;0.60;;
65751;SDS011;52486;51.098;13.770;2023-07-22T09:46:50;0.70;;;0.70;;
65751;SDS011;52486;51.098;13.770;2023-07-22T09:49:16;0.63;;;0.60;;
65751;SDS011;52486;51.098;13.770;2023-07-22T09:51:43;0.60;;;0.60;;
65751;SDS011;52486;51.098;13.770;2023-07-22T09:54:09;0.45;;;0.45;;
65751;SDS011;52486;51.098;13.770;2023-07-22T09:56:45;0.50;;;0.50;;
65751;SDS011;52486;51.098;13.770;2023-07-22T09:59:12;0.65;;;0.65;;
65751;SDS011;52486;51.098;13.770;2023-07-22T10:01:38;0.50;;;0.50;;
65751;SDS011;52486;51.098;13.770;2023-07-22T10:04:05;0.50;;;0.50;;
65751;SDS011;52486;51.098;13.770;2023-07-22T10:06:31;0.88;;;0.70;;
65751;SDS011;52486;51.098;13.770;2023-07-22T10:09:02;0.47;;;0.40;;
65751;SDS011;52486;51.098;13.770;2023-07-22T10:11:32;0.35;;;0.35;;
65751;SDS011;52486;51.098;13.770;2023-07-22T10:13:59;0.60;;;0.60;;
65751;SDS011;52486;51.098;13.770;2023-07-22T10:16:25;0.63;;;0.63;;
65751;SDS011;52486;51.098;13.770;2023-07-22T10:18:51;0.80;;;0.80;;
65751;SDS011;52486;51.098;13.770;2023-07-22T10:21:17;0.57;;;0.57;;
65751;SDS011;52486;51.098;13.770;2023-07-22T10:23:44;0.60;;;0.60;;
65751;SDS011;52486;51.098;13.770;2023-07-22T10:26:12;0.60;;;0.60;;
65751;SDS011;52486;51.098;13.770;2023-07-22T10:28:43;0.50;;;0.50;;
65751;SDS011;52486;51.098;13.770;2023-07-22T10:31:10;0.47;;;0.47;;
65751;SDS011;52486;51.098;13.770;2023-07-22T10:33:38;0.57;;;0.57;;
65751;SDS011;52486;51.098;13.770;2023-07-22T10:36:05;0.50;;;0.50;;
65751;SDS011;52486;51.098;13.770;2023-07-22T10:38:32;0.70;;;0.70;;
65751;SDS011;52486;51.098;13.770;2023-07-22T10:40:59;0.70;;;0.70;;
65751;SDS011;52486;51.098;13.770;2023-07-22T10:43:32;0.68;;;0.68;;
65751;SDS011;52486;51.098;13.770;2023-07-22T10:46:05;0.50;;;0.50;;
65751;SDS011;52486;51.098;13.770;2023-07-22T10:48:36;0.70;;;0.70;;
65751;SDS011;52486;51.098;13.770;2023-07-22T10:51:13;0.43;;;0.43;;
65751;SDS011;52486;51.098;13.770;2023-07-22T10:53:46;0.60;;;0.60;;
65751;SDS011;52486;51.098;13.770;2023-07-22T10:56:14;0.50;;;0.50;;
65751;SDS011;52486;51.098;13.770;2023-07-22T11:04:06;0.60;;;0.60;;
65751;SDS011;52486;51.098;13.770;2023-07-22T11:14:27;0.73;;;0.73;;
65751;SDS011;52486;51.098;13.770;2023-07-22T11:16:56;0.60;;;0.60;;
65751;SDS011;52486;51.098;13.770;2023-07-22T11:19:23;0.70;;;0.63;;
65751;SDS011;52486;51.098;13.770;2023-07-22T11:21:50;0.40;;;0.40;;
65751;SDS011;52486;51.098;13.770;2023-07-22T11:24:17;0.60;;;0.60;;
65751;SDS011;52486;51.098;13.770;2023-07-22T11:26:44;0.57;;;0.57;;
65751;SDS011;52486;51.098;13.770;2023-07-22T11:29:11;0.57;;;0.57;;
65751;SDS011;52486;51.098;13.770;2023-07-22T11:31:38;0.60;;;0.60;;
65751;SDS011;52486;51.098;13.770;2023-07-22T11:34:08;0.50;;;0.50;;
65751;SDS011;52486;51.098;13.770;2023-07-22T11:36:35;0.47;;;0.47;;
65751;SDS011;52486;51.098;13.770;2023-07-22T11:39:08;0.60;;;0.60;;
65751;SDS011;52486;51.098;13.770;2023-07-22T11:41:36;0.52;;;0.52;;
65751;SDS011;52486;51.098;13.770;2023-07-22T11:44:02;0.50;;;0.50;;
65751;SDS011;52486;51.098;13.770;2023-07-22T11:46:55;0.50;;;0.50;;
65751;SDS011;52486;51.098;13.770;2023-07-22T11:49:23;0.47;;;0.47;;
65751;SDS011;52486;51.098;13.770;2023-07-22T11:51:49;0.50;;;0.50;;
65751;SDS011;52486;51.098;13.770;2023-07-22T11:54:15;0.63;;;0.63;;
65751;SDS011;52486;51.098;13.770;2023-07-22T11:56:42;0.50;;;0.50;;
65751;SDS011;52486;51.098;13.770;2023-07-22T11:59:08;0.50;;;0.50;;
65751;SDS011;52486;51.098;13.770;2023-07-22T12:01:34;0.50;;;0.50;;
65751;SDS011;52486;51.098;13.770;2023-07-22T12:04:00;0.43;;;0.43;;
65751;SDS011;52486;51.098;13.770;2023-07-22T12:06:26;0.60;;;0.60;;
65751;SDS011;52486;51.098;13.770;2023-07-22T12:08:52;0.60;;;0.60;;
65751;SDS011;52486;51.098;13.770;2023-07-22T12:11:19;0.75;;;0.65;;
65751;SDS011;52486;51.098;13.770;2023-07-22T12:13:49;0.60;;;0.60;;
65751;SDS011;52486;51.098;13.770;2023-07-22T12:16:30;0.60;;;0.60;;
65751;SDS011;52486;51.098;13.770;2023-07-22T12:18:55;0.70;;;0.70;;
65751;SDS011;52486;51.098;13.770;2023-07-22T12:21:23;0.60;;;0.60;;
65751;SDS011;52486;51.098;13.770;2023-07-22T12:23:48;0.70;;;0.70;;
65751;SDS011;52486;51.098;13.770;2023-07-22T12:26:14;0.40;;;0.40;;
65751;SDS011;52486;51.098;13.770;2023-07-22T12:28:40;0.60;;;0.60;;
65751;SDS011;52486;51.098;13.770;2023-07-22T12:31:06;0.70;;;0.60;;
65751;SDS011;52486;51.098;13.770;2023-07-22T12:33:32;0.60;;;0.60;;
65751;SDS011;52486;51.098;13.770;2023-07-22T12:35:58;0.43;;;0.43;;
65751;SDS011;52486;51.098;13.770;2023-07-22T12:38:24;0.52;;;0.52;;
65751;SDS011;52486;51.098;13.770;2023-07-22T12:40:50;0.40;;;0.40;;
65751;SDS011;52486;51.098;13.770;2023-07-22T12:43:16;0.50;;;0.50;;
65751;SDS011;52486;51.098;13.770;2023-07-22T12:45:42;0.50;;;0.50;;
65751;SDS011;52486;51.098;13.770;2023-07-22T12:48:08;0.50;;;0.50;;
65751;SDS011;52486;51.098;13.770;2023-07-22T12:50:34;0.50;;;0.50;;
65751;SDS011;52486;51.098;13.770;2023-07-22T12:53:01;0.55;;;0.55;;
65751;SDS011;52486;51.098;13.770;2023-07-22T12:55:27;0.52;;;0.52;;
65751;SDS011;52486;51.098;13.770;2023-07-22T12:57:53;0.50;;;0.50;;
65751;SDS011;52486;51.098;13.770;2023-07-22T13:00:19;0.40;;;0.40;;
65751;SDS011;52486;51.098;13.770;2023-07-22T13:02:46;0.70;;;0.70;;
65751;SDS011;52486;51.098;13.770;2023-07-22T13:05:12;0.50;;;0.50;;
65751;SDS011;52486;51.098;13.770;2023-07-22T13:07:38;0.40;;;0.40;;
65751;SDS011;52486;51.098;13.770;2023-07-22T13:10:05;0.40;;;0.40;;
65751;SDS011;52486;51.098;13.770;2023-07-22T13:12:38;0.60;;;0.60;;
65751;SDS011;52486;51.098;13.770;2023-07-22T13:15:04;0.50;;;0.50;;
65751;SDS011;52486;51.098;13.770;2023-07-22T13:17:31;0.55;;;0.55;;
65751;SDS011;52486;51.098;13.770;2023-07-22T13:19:56;0.60;;;0.60;;
65751;SDS011;52486;51.098;13.770;2023-07-22T13:22:22;0.50;;;0.50;;
65751;SDS011;52486;51.098;13.770;2023-07-22T13:24:48;0.40;;;0.40;;
65751;SDS011;52486;51.098;13.770;2023-07-22T13:27:14;0.50;;;0.50;;
65751;SDS011;52486;51.098;13.770;2023-07-22T13:29:40;0.50;;;0.50;;
65751;SDS011;52486;51.098;13.770;2023-07-22T13:32:06;0.50;;;0.50;;
65751;SDS011;52486;51.098;13.770;2023-07-22T13:34:33;0.40;;;0.40;;
65751;SDS011;52486;51.098;13.770;2023-07-22T13:36:59;0.85;;;0.60;;
65751;SDS011;52486;51.098;13.770;2023-07-22T13:39:27;0.50;;;0.50;;
65751;SDS011;52486;51.098;13.770;2023-07-22T13:41:53;0.70;;;0.70;;
65751;SDS011;52486;51.098;13.770;2023-07-22T13:44:19;0.65;;;0.57;;
65751;SDS011;52486;51.098;13.770;2023-07-22T13:46:45;0.50;;;0.50;;
65751;SDS011;52486;51.098;13.770;2023-07-22T13:49:11;0.57;;;0.57;;
65751;SDS011;52486;51.098;13.770;2023-07-22T13:51:37;0.50;;;0.50;;
65751;SDS011;52486;51.098;13.770;2023-07-22T13:54:03;0.40;;;0.40;;
65751;SDS011;52486;51.098;13.770;2023-07-22T13:56:29;0.40;;;0.40;;
65751;SDS011;52486;51.098;13.770;2023-07-22T13:58:55;0.52;;;0.52;;
65751;SDS011;52486;51.098;13.770;2023-07-22T14:01:21;0.60;;;0.60;;
65751;SDS011;52486;51.098;13.770;2023-07-22T14:03:47;0.50;;;0.50;;
65751;SDS011;52486;51.098;13.770;2023-07-22T14:06:13;0.60;;;0.60;;
65751;SDS011;52486;51.098;13.770;2023-07-22T14:08:39;0.50;;;0.50;;
65751;SDS011;52486;51.098;13.770;2023-07-22T14:11:04;0.40;;;0.40;;
65751;SDS011;52486;51.098;13.770;2023-07-22T14:13:30;0.60;;;0.60;;
65751;SDS011;52486;51.098;13.770;2023-07-22T14:15:56;0.60;;;0.60;;
65751;SDS011;52486;51.098;13.770;2023-07-22T14:18:22;0.45;;;0.45;;
65751;SDS011;52486;51.098;13.770;2023-07-22T14:20:49;0.40;;;0.40;;
65751;SDS011;52486;51.098;13.770;2023-07-22T14:23:15;0.60;;;0.60;;
65751;SDS011;52486;51.098;13.770;2023-07-22T14:25:41;0.65;;;0.60;;
65751;SDS011;52486;51.098;13.770;2023-07-22T14:28:07;0.50;;;0.50;;
65751;SDS011;52486;51.098;13.770;2023-07-22T14:30:33;0.30;;;0.30;;
65751;SDS011;52486;51.098;13.770;2023-07-22T14:32:59;0.45;;;0.45;;
65751;SDS011;52486;51.098;13.770;2023-07-22T14:35:25;0.70;;;0.50;;
65751;SDS011;52486;51.098;13.770;2023-07-22T14:37:51;0.40;;;0.40;;
65751;SDS011;52486;51.098;13.770;2023-07-22T14:40:17;0.50;;;0.50;;
65751;SDS011;52486;51.098;13.770;2023-07-22T14:42:43;0.63;;;0.50;;
65751;SDS011;52486;51.098;13.770;2023-07-22T14:45:09;0.45;;;0.45;;
65751;SDS011;52486;51.098;13.770;2023-07-22T14:47:35;0.40;;;0.40;;
65751;SDS011;52486;51.098;13.770;2023-07-22T14:50:01;0.50;;;0.50;;